createdAt,value
2022-09-03T00:00:37.150Z,58.37
2022-09-03T00:03:22.484Z,58.25
2022-09-03T00:05:56.625Z,58.44
2022-09-03T00:08:34.873Z,58.61
2022-09-03T00:11:13.420Z,58.37
2022-09-03T00:14:03.179Z,58.52
2022-09-03T00:16:45.730Z,58.60
2022-09-03T00:19:17.368Z,58.65
2022-09-03T00:21:49.033Z,58.76
2022-09-03T00:24:19.577Z,58.70
2022-09-03T00:26:51.883Z,58.82
2022-09-03T00:29:32.465Z,58.92
2022-09-03T00:32:04.975Z,59.03
2022-09-03T00:34:37.988Z,59.06
2022-09-03T00:37:05.734Z,58.92
2022-09-03T00:39:37.890Z,59.26
2022-09-03T00:42:11.323Z,59.36
2022-09-03T00:44:45.014Z,59.25
2022-09-03T00:47:19.453Z,59.41
2022-09-03T00:49:54.925Z,59.31
2022-09-03T00:52:50.310Z,59.44
2022-09-03T00:55:33.037Z,59.44
2022-09-03T00:58:22.317Z,59.54
2022-09-03T01:00:50.686Z,59.74
2022-09-03T01:03:33.499Z,59.63
2022-09-03T01:06:39.465Z,59.72
2022-09-03T01:09:39.441Z,59.74
2022-09-03T01:12:32.703Z,59.67
2022-09-03T01:15:16.860Z,59.79
2022-09-03T01:17:50.937Z,59.84
2022-09-03T01:20:28.720Z,60.03
2022-09-03T01:23:12.858Z,60.03
2022-09-03T01:25:40.596Z,60.14
2022-09-03T01:28:20.494Z,60.20
2022-09-03T01:31:11.551Z,60.21
2022-09-03T01:33:44.244Z,60.13
2022-09-03T01:36:38.772Z,60.15
2022-09-03T01:39:15.058Z,60.22
2022-09-03T01:42:13.079Z,60.20
2022-09-03T01:44:52.877Z,60.50
2022-09-03T01:48:06.195Z,60.40
2022-09-03T01:50:36.590Z,60.41
2022-09-03T01:53:13.433Z,60.58
2022-09-03T01:56:14.693Z,60.49
2022-09-03T01:59:01.055Z,60.66
2022-09-03T02:01:33.432Z,60.77
2022-09-03T02:04:02.106Z,60.57
2022-09-03T02:06:31.975Z,60.63
2022-09-03T02:08:59.695Z,60.71
2022-09-03T02:11:28.866Z,60.82
2022-09-03T02:13:59.873Z,60.86
2022-09-03T02:16:32.017Z,60.96
2022-09-03T02:19:02.679Z,60.76
2022-09-03T02:21:40.024Z,60.90
2022-09-03T02:24:08.968Z,61.02
2022-09-03T02:26:36.908Z,60.99
2022-09-03T02:29:05.415Z,61.13
2022-09-03T02:31:33.245Z,61.22
2022-09-03T02:34:01.009Z,61.06
2022-09-03T02:36:33.258Z,61.25
2022-09-03T02:39:01.173Z,61.17
2022-09-03T02:41:29.034Z,61.15
2022-09-03T02:44:08.764Z,61.21
2022-09-03T02:46:40.951Z,61.18
2022-09-03T02:49:09.133Z,61.26
2022-09-03T02:51:39.948Z,61.25
2022-09-03T02:54:10.929Z,61.41
2022-09-03T02:56:38.993Z,61.41
2022-09-03T02:59:08.407Z,61.52
2022-09-03T03:01:37.754Z,61.42
2022-09-03T03:04:06.940Z,61.58
2022-09-03T03:06:34.994Z,61.51
2022-09-03T03:09:05.061Z,61.63
2022-09-03T03:11:33.437Z,61.53
2022-09-03T03:14:01.140Z,61.64
2022-09-03T03:16:28.964Z,61.72
2022-09-03T03:18:57.489Z,61.71
2022-09-03T03:21:25.865Z,61.71
2022-09-03T03:23:53.806Z,61.72
2022-09-03T03:26:23.119Z,61.83
2022-09-03T03:28:57.022Z,61.93
2022-09-03T03:31:25.618Z,61.78
2022-09-03T03:33:58.125Z,61.77
2022-09-03T03:36:29.035Z,61.90
2022-09-03T03:38:58.988Z,61.86
2022-09-03T03:41:32.179Z,61.92
2022-09-03T03:44:02.799Z,61.98
2022-09-03T03:46:33.970Z,62.04
2022-09-03T03:49:01.866Z,61.95
2022-09-03T03:51:30.533Z,62.20
2022-09-03T03:54:03.121Z,62.17
2022-09-03T03:56:33.501Z,62.15
2022-09-03T03:59:01.306Z,62.14
2022-09-03T04:01:29.835Z,62.10
2022-09-03T04:04:00.178Z,62.20
2022-09-03T04:06:28.852Z,62.22
2022-09-03T04:08:56.916Z,62.29
2022-09-03T04:11:25.579Z,62.31
2022-09-03T04:13:53.825Z,62.31
2022-09-03T04:16:25.470Z,62.44
2022-09-03T04:18:54.584Z,62.55
2022-09-03T04:21:26.629Z,62.63
2022-09-03T04:23:57.454Z,62.66
2022-09-03T04:26:31.973Z,62.71
2022-09-03T04:29:02.908Z,62.72
2022-09-03T04:31:31.384Z,62.65
2022-09-03T04:34:00.823Z,62.73
2022-09-03T04:36:30.942Z,62.74
2022-09-03T04:39:00.042Z,62.89
2022-09-03T04:41:29.541Z,62.99
2022-09-03T04:43:58.848Z,62.91
2022-09-03T04:46:33.356Z,62.87
2022-09-03T04:49:02.668Z,62.95
2022-09-03T04:51:33.160Z,63.10
2022-09-03T04:54:02.196Z,63.08
2022-09-03T04:56:32.874Z,62.91
2022-09-03T04:59:06.448Z,62.91
2022-09-03T05:01:35.823Z,62.89
2022-09-03T05:04:04.827Z,62.95
2022-09-03T05:06:33.391Z,62.91
2022-09-03T05:09:01.362Z,62.92
2022-09-03T05:11:30.113Z,62.77
2022-09-03T05:13:59.465Z,62.69
2022-09-03T05:16:29.968Z,62.79
2022-09-03T05:18:59.751Z,62.69
2022-09-03T05:21:28.455Z,62.59
2022-09-03T05:23:56.750Z,62.68
2022-09-03T05:26:29.968Z,62.58
2022-09-03T05:29:00.113Z,62.51
2022-09-03T05:31:31.589Z,62.23
2022-09-03T05:34:01.465Z,62.04
2022-09-03T05:36:31.824Z,61.92
2022-09-03T05:38:59.877Z,62.01
2022-09-03T05:41:28.533Z,61.84
2022-09-03T05:43:58.664Z,61.85
2022-09-03T05:46:32.794Z,61.64
2022-09-03T05:49:02.093Z,61.46
2022-09-03T05:51:30.630Z,61.36
2022-09-03T05:53:59.409Z,61.12
2022-09-03T05:56:29.640Z,61.00
2022-09-03T05:59:02.071Z,60.82
2022-09-03T06:01:35.197Z,60.83
2022-09-03T06:04:04.707Z,60.66
2022-09-03T06:06:34.494Z,60.52
2022-09-03T06:09:04.930Z,60.54
2022-09-03T06:11:34.836Z,60.32
2022-09-03T06:14:05.859Z,60.06
2022-09-03T06:16:38.811Z,59.74
2022-09-03T06:19:09.859Z,59.69
2022-09-03T06:21:42.913Z,59.60
2022-09-03T06:24:12.648Z,59.37
2022-09-03T06:26:43.739Z,59.26
2022-09-03T06:29:12.484Z,58.96
2022-09-03T06:31:40.492Z,58.74
2022-09-03T06:34:08.402Z,58.49
2022-09-03T06:36:36.186Z,58.43
2022-09-03T06:39:04.160Z,58.18
2022-09-03T06:41:34.010Z,57.83
2022-09-03T06:44:06.727Z,57.52
2022-09-03T06:46:36.343Z,57.30
2022-09-03T06:49:04.080Z,57.11
2022-09-03T06:51:33.777Z,56.99
2022-09-03T06:54:09.535Z,56.65
2022-09-03T06:56:40.741Z,56.30
2022-09-03T06:59:14.167Z,56.20
2022-09-03T07:01:45.286Z,56.11
2022-09-03T07:04:16.647Z,55.60
2022-09-03T07:06:46.574Z,55.13
2022-09-03T07:09:18.043Z,55.00
2022-09-03T07:11:47.984Z,54.67
2022-09-03T07:14:18.094Z,54.26
2022-09-03T07:16:46.362Z,53.83
2022-09-03T07:19:14.679Z,53.82
2022-09-03T07:21:48.333Z,53.35
2022-09-03T07:24:18.070Z,53.01
2022-09-03T07:26:48.544Z,52.79
2022-09-03T07:29:20.331Z,52.45
2022-09-03T07:31:51.612Z,52.29
2022-09-03T07:34:22.160Z,51.76
2022-09-03T07:36:51.909Z,51.62
2022-09-03T07:39:20.207Z,51.09
2022-09-03T07:41:48.281Z,50.76
2022-09-03T07:44:19.889Z,50.22
2022-09-03T07:46:50.923Z,50.11
2022-09-03T07:49:21.681Z,49.67
2022-09-03T07:51:54.600Z,49.48
2022-09-03T07:54:24.004Z,49.12
2022-09-03T07:56:51.986Z,48.75
2022-09-03T07:59:21.339Z,48.32
2022-09-03T08:01:49.221Z,47.99
2022-09-03T08:04:16.970Z,47.46
2022-09-03T08:06:45.152Z,47.40
2022-09-03T08:09:13.800Z,46.99
2022-09-03T08:11:43.464Z,46.35
2022-09-03T08:14:12.795Z,45.98
2022-09-03T08:16:43.283Z,45.56
2022-09-03T08:19:13.177Z,45.06
2022-09-03T08:21:44.453Z,44.64
2022-09-03T08:24:12.384Z,44.12
2022-09-03T08:26:46.324Z,44.09
2022-09-03T08:29:18.718Z,43.59
2022-09-03T08:31:46.536Z,43.04
2022-09-03T08:34:14.850Z,42.77
2022-09-03T08:36:42.712Z,42.83
2022-09-03T08:39:11.916Z,42.34
2022-09-03T08:42:08.455Z,40.45
2022-09-03T08:45:02.634Z,38.27
2022-09-03T08:47:49.980Z,36.62
2022-09-03T08:50:27.635Z,34.79
2022-09-03T08:53:16.191Z,32.92
2022-09-03T08:55:54.114Z,30.79
2022-09-03T08:58:33.949Z,28.43
2022-09-03T09:01:32.050Z,27.13
2022-09-03T09:04:16.990Z,26.06
2022-09-03T09:07:04.795Z,25.12
2022-09-03T09:10:01.020Z,24.33
2022-09-03T09:12:59.718Z,23.41
2022-09-03T09:15:50.973Z,22.58
2022-09-03T09:18:35.360Z,22.37
2022-09-03T09:21:15.655Z,21.62
2022-09-03T09:23:50.045Z,21.07
2022-09-03T09:26:19.801Z,20.25
2022-09-03T09:28:54.534Z,18.68
2022-09-03T09:31:23.388Z,17.12
2022-09-03T09:33:52.421Z,16.72
2022-09-03T09:36:22.824Z,15.97
2022-09-03T09:38:50.503Z,14.74
2022-09-03T09:41:20.237Z,13.53
2022-09-03T09:43:48.242Z,13.30
2022-09-03T09:46:23.923Z,12.26
2022-09-03T09:48:57.310Z,11.58
2022-09-03T09:51:31.121Z,11.51
2022-09-03T09:54:21.891Z,10.95
2022-09-03T09:57:03.580Z,10.43
2022-09-03T09:59:31.811Z,9.76
2022-09-03T10:02:26.284Z,9.43
2022-09-03T10:05:22.254Z,8.93
2022-09-03T10:08:01.060Z,8.87
2022-09-03T10:10:31.928Z,8.35
2022-09-03T10:13:05.873Z,8.49
2022-09-03T10:15:47.478Z,7.46
2022-09-03T10:18:39.472Z,7.82
2022-09-03T10:21:25.810Z,7.73
2022-09-03T10:23:59.606Z,7.55
2022-09-03T10:26:30.726Z,7.15
2022-09-03T10:29:01.935Z,6.71
2022-09-03T10:31:36.862Z,5.95
2022-09-03T10:34:18.688Z,5.83
2022-09-03T10:36:59.109Z,5.39
2022-09-03T10:39:52.483Z,5.76
2022-09-03T10:42:29.428Z,6.00
2022-09-03T10:45:18.755Z,6.20
2022-09-03T10:47:57.716Z,6.16
2022-09-03T10:50:34.276Z,6.20
2022-09-03T10:53:31.897Z,6.08
2022-09-03T10:56:08.964Z,5.52
2022-09-03T10:58:55.456Z,5.51
2022-09-03T11:02:09.834Z,5.84
2022-09-03T11:04:44.415Z,5.79
2022-09-03T11:07:13.927Z,5.83
2022-09-03T11:09:50.699Z,5.97
2022-09-03T11:12:23.326Z,6.26
2022-09-03T11:14:56.448Z,6.07
2022-09-03T11:17:27.976Z,6.23
2022-09-03T11:19:58.217Z,5.89
2022-09-03T11:22:26.694Z,5.87
2022-09-03T11:24:58.561Z,5.88
2022-09-03T11:28:10.053Z,6.75
2022-09-03T11:31:03.466Z,7.51
2022-09-03T11:33:33.205Z,7.94
2022-09-03T11:36:02.233Z,8.78
2022-09-03T11:38:33.435Z,9.05
2022-09-03T11:41:12.999Z,9.34
2022-09-03T11:43:42.456Z,9.87
2022-09-03T11:46:14.300Z,10.20
2022-09-03T11:48:47.713Z,10.49
2022-09-03T11:51:30.474Z,10.65
2022-09-03T11:54:21.080Z,11.09
2022-09-03T11:56:51.598Z,11.64
2022-09-03T11:59:24.147Z,11.92
2022-09-03T12:01:53.349Z,12.21
2022-09-03T12:04:26.256Z,12.71
2022-09-03T12:07:02.956Z,13.36
2022-09-03T12:10:08.825Z,13.70
2022-09-03T12:12:46.233Z,14.28
2022-09-03T12:15:52.581Z,14.55
2022-09-03T12:18:26.379Z,15.13
2022-09-03T12:20:55.645Z,15.57
2022-09-03T12:23:31.308Z,15.69
2022-09-03T12:26:05.049Z,16.09
2022-09-03T12:28:37.118Z,16.17
2022-09-03T12:31:30.074Z,16.46
2022-09-03T12:34:10.637Z,16.82
2022-09-03T12:36:42.885Z,16.86
2022-09-03T12:39:12.396Z,17.11
2022-09-03T12:41:54.458Z,17.05
2022-09-03T12:44:33.769Z,17.27
2022-09-03T12:50:27.424Z,17.72
2022-09-03T12:53:03.634Z,18.03
2022-09-03T12:55:43.182Z,18.14
2022-09-03T12:58:17.831Z,18.21
2022-09-03T13:01:10.494Z,18.46
2022-09-03T13:03:54.903Z,18.63
2022-09-03T13:06:26.778Z,18.81
2022-09-03T13:08:59.034Z,19.01
2022-09-03T13:11:27.510Z,19.22
2022-09-03T13:14:10.035Z,19.29
2022-09-03T13:16:37.836Z,19.51
2022-09-03T13:19:31.081Z,19.60
2022-09-03T13:22:17.075Z,19.80
2022-09-03T13:25:16.477Z,20.09
2022-09-03T13:27:44.185Z,20.25
2022-09-03T13:30:17.264Z,20.33
2022-09-03T13:32:51.243Z,20.72
2022-09-03T13:35:32.310Z,20.88
2022-09-03T13:38:36.949Z,20.93
2022-09-03T13:41:19.763Z,21.07
2022-09-03T13:44:08.447Z,21.35
2022-09-03T13:46:52.346Z,21.40
2022-09-03T13:49:54.117Z,21.58
2022-09-03T13:52:30.411Z,21.73
2022-09-03T13:55:05.200Z,21.87
2022-09-03T13:57:40.387Z,21.74
2022-09-03T14:00:11.727Z,22.01
2022-09-03T14:02:49.300Z,22.00
2022-09-03T14:05:25.128Z,22.04
2022-09-03T14:08:09.805Z,22.17
2022-09-03T14:10:58.133Z,22.24
2022-09-03T14:13:59.473Z,22.38
2022-09-03T14:16:44.820Z,22.11
2022-09-03T14:19:28.561Z,22.07
2022-09-03T14:22:02.115Z,22.22
2022-09-03T14:24:38.644Z,22.52
2022-09-03T14:27:07.593Z,22.56
2022-09-03T14:29:35.936Z,22.72
2022-09-03T14:32:12.771Z,22.66
2022-09-03T14:35:00.447Z,22.89
2022-09-03T14:38:05.182Z,23.00
2022-09-03T14:40:47.140Z,22.85
2022-09-03T14:43:21.788Z,22.80
2022-09-03T14:46:17.259Z,22.93
2022-09-03T14:49:03.040Z,22.86
2022-09-03T14:51:52.777Z,23.04
2022-09-03T14:54:39.614Z,23.04
2022-09-03T14:57:45.837Z,23.08
2022-09-03T15:00:18.673Z,23.18
2022-09-03T15:03:03.070Z,23.10
2022-09-03T15:05:45.079Z,23.29
2022-09-03T15:08:25.065Z,23.32
2022-09-03T15:10:58.016Z,23.33
2022-09-03T15:13:26.297Z,23.41
2022-09-03T15:16:09.104Z,23.40
2022-09-03T15:19:20.000Z,23.64
2022-09-03T15:22:06.287Z,23.87
2022-09-03T15:24:55.108Z,23.79
2022-09-03T15:27:40.946Z,24.04
2022-09-03T15:30:14.982Z,24.07
2022-09-03T15:33:08.193Z,24.35
2022-09-03T15:35:57.532Z,24.51
2022-09-03T15:38:46.664Z,24.64
2022-09-03T15:41:35.880Z,24.64
2022-09-03T15:44:07.868Z,24.90
2022-09-03T15:46:49.726Z,24.82
2022-09-03T15:49:39.046Z,25.05
2022-09-03T15:52:29.658Z,24.93
2022-09-03T15:55:10.724Z,25.16
2022-09-03T15:58:08.243Z,25.33
2022-09-03T16:00:45.331Z,25.33
2022-09-03T16:03:24.226Z,25.61
2022-09-03T16:05:57.328Z,25.59
2022-09-03T16:08:46.484Z,25.65
2022-09-03T16:11:33.701Z,25.90
2022-09-03T16:14:15.696Z,25.93
2022-09-03T16:17:07.461Z,26.07
2022-09-03T16:19:52.740Z,26.31
2022-09-03T16:22:27.416Z,26.26
2022-09-03T16:25:02.501Z,26.55
2022-09-03T16:27:56.410Z,26.57
2022-09-03T16:30:39.377Z,26.77
2022-09-03T16:33:29.443Z,26.79
2022-09-03T16:36:21.682Z,26.99
2022-09-03T16:39:03.660Z,26.98
2022-09-03T16:41:48.561Z,27.24
2022-09-03T16:44:59.891Z,27.50
2022-09-03T16:47:55.779Z,27.55
2022-09-03T16:50:26.245Z,27.54
2022-09-03T16:53:08.198Z,27.80
2022-09-03T16:56:14.077Z,28.06
2022-09-03T16:58:58.180Z,28.30
2022-09-03T17:01:26.518Z,28.67
2022-09-03T17:04:06.649Z,28.94
2022-09-03T17:07:11.116Z,29.34
2022-09-03T17:09:47.680Z,29.78
2022-09-03T17:12:37.025Z,30.01
2022-09-03T17:15:08.332Z,30.31
2022-09-03T17:17:41.869Z,30.52
2022-09-03T17:20:15.882Z,30.90
2022-09-03T17:23:00.373Z,31.11
2022-09-03T17:25:38.546Z,31.62
2022-09-03T17:28:25.336Z,32.03
2022-09-03T17:30:59.318Z,32.40
2022-09-03T17:33:35.890Z,32.57
2022-09-03T17:36:31.415Z,33.04
2022-09-03T17:39:08.481Z,33.35
2022-09-03T17:41:54.606Z,33.78
2022-09-03T17:44:28.945Z,34.16
2022-09-03T17:47:24.760Z,34.43
2022-09-03T17:50:05.848Z,34.83
2022-09-03T17:52:41.707Z,35.07
2022-09-03T17:55:22.104Z,35.39
2022-09-03T17:58:21.543Z,35.79
2022-09-03T18:00:58.018Z,36.25
2022-09-03T18:03:47.958Z,36.58
2022-09-03T18:06:40.538Z,36.93
2022-09-03T18:09:17.571Z,37.14
2022-09-03T18:12:07.752Z,37.49
2022-09-03T18:14:52.322Z,37.86
2022-09-03T18:17:59.054Z,38.15
2022-09-03T18:21:03.180Z,38.52
2022-09-03T18:24:13.476Z,38.88
2022-09-03T18:27:04.929Z,39.25
2022-09-03T18:29:55.305Z,39.55
2022-09-03T18:32:41.523Z,39.75
2022-09-03T18:35:28.676Z,40.06
2022-09-03T18:38:15.167Z,40.34
2022-09-03T18:41:13.185Z,40.79
2022-09-03T18:44:18.154Z,40.97
2022-09-03T18:50:50.545Z,41.45
2022-09-03T18:53:56.914Z,41.88
2022-09-03T18:56:55.668Z,42.06
2022-09-03T19:00:01.053Z,42.26
2022-09-03T19:02:59.794Z,42.50
2022-09-03T19:05:56.702Z,42.72
2022-09-03T19:09:14.885Z,43.04
2022-09-03T19:12:32.332Z,43.19
2022-09-03T19:15:30.065Z,43.41
2022-09-03T19:18:19.614Z,43.86
2022-09-03T19:21:45.700Z,43.94
2022-09-03T19:24:32.153Z,44.24
2022-09-03T19:27:52.990Z,44.38
2022-09-03T19:30:40.250Z,44.68
2022-09-03T19:33:51.759Z,44.77
2022-09-03T19:37:04.908Z,45.06
2022-09-03T19:40:12.420Z,45.23
2022-09-03T19:43:37.347Z,45.46
2022-09-03T19:46:51.401Z,45.66
2022-09-03T19:49:50.497Z,45.86
2022-09-03T19:53:04.173Z,45.98
2022-09-03T19:55:56.340Z,46.14
2022-09-03T19:58:44.375Z,46.52
2022-09-03T20:01:31.946Z,46.59
2022-09-03T20:04:19.995Z,46.69
2022-09-03T20:07:06.539Z,46.75
2022-09-03T20:09:57.939Z,46.87
2022-09-03T20:12:30.084Z,47.18
2022-09-03T20:14:57.810Z,47.22
2022-09-03T20:17:46.487Z,47.50
2022-09-03T20:20:28.983Z,47.48
2022-09-03T20:23:01.315Z,47.71
2022-09-03T20:25:47.470Z,47.81
2022-09-03T20:28:43.603Z,47.94
2022-09-03T20:31:28.722Z,48.05
2022-09-03T20:33:59.365Z,48.20
2022-09-03T20:36:51.703Z,48.34
2022-09-03T20:40:01.568Z,48.63
2022-09-03T20:42:55.862Z,48.73
2022-09-03T20:45:23.572Z,48.81
2022-09-03T20:47:59.765Z,48.85
2022-09-03T20:50:45.365Z,48.93
2022-09-03T20:53:33.123Z,49.07
2022-09-03T20:56:15.109Z,49.13
2022-09-03T20:59:15.176Z,49.22
2022-09-03T21:02:00.643Z,49.29
2022-09-03T21:04:48.692Z,49.19
2022-09-03T21:07:35.761Z,49.46
2022-09-03T21:10:26.934Z,49.43
2022-09-03T21:13:07.647Z,49.40
2022-09-03T21:15:41.144Z,49.55
2022-09-03T21:18:27.107Z,49.53
2022-09-03T21:21:12.816Z,49.73
2022-09-03T21:23:44.215Z,49.79
2022-09-03T21:26:15.194Z,49.87
2022-09-03T21:28:58.596Z,50.04
2022-09-03T21:31:35.136Z,50.22
2022-09-03T21:34:20.593Z,50.26
2022-09-03T21:36:49.293Z,50.29
2022-09-03T21:39:27.289Z,50.29
2022-09-03T21:42:17.137Z,50.41
2022-09-03T21:45:00.500Z,50.56
2022-09-03T21:47:29.876Z,50.78
2022-09-03T21:50:16.547Z,50.80
2022-09-03T21:52:50.839Z,50.84
2022-09-03T21:55:24.224Z,50.88
2022-09-03T21:58:06.747Z,51.12
2022-09-03T22:00:34.455Z,51.19
2022-09-03T22:03:02.464Z,51.27
2022-09-03T22:05:43.720Z,51.39
2022-09-03T22:08:14.465Z,51.47
2022-09-03T22:11:00.758Z,51.54
2022-09-03T22:13:43.984Z,51.64
2022-09-03T22:16:20.519Z,51.78
2022-09-03T22:18:50.322Z,51.86
2022-09-03T22:21:23.290Z,51.93
2022-09-03T22:24:19.084Z,52.07
2022-09-03T22:26:51.920Z,52.22
2022-09-03T22:29:29.928Z,52.13
2022-09-03T22:32:30.883Z,52.25
2022-09-03T22:35:26.664Z,52.39
2022-09-03T22:38:03.073Z,52.45
2022-09-03T22:40:39.731Z,52.43
2022-09-03T22:43:25.661Z,52.63
2022-09-03T22:46:06.470Z,52.74
2022-09-03T22:48:58.497Z,52.65
2022-09-03T22:51:28.868Z,52.75
2022-09-03T22:54:24.477Z,52.98
2022-09-03T22:56:52.909Z,53.03
2022-09-03T22:59:24.306Z,53.06
2022-09-03T23:02:05.177Z,53.14
2022-09-03T23:04:55.148Z,53.20
2022-09-03T23:07:29.683Z,53.41
2022-09-03T23:10:11.619Z,53.29
2022-09-03T23:12:47.151Z,53.30
2022-09-03T23:15:30.458Z,53.43
2022-09-03T23:18:09.929Z,53.73
2022-09-03T23:20:40.676Z,53.79
2022-09-03T23:23:21.811Z,53.85
2022-09-03T23:25:53.807Z,53.88
2022-09-03T23:28:29.534Z,53.80
2022-09-03T23:31:08.783Z,54.00
2022-09-03T23:33:36.453Z,54.02
2022-09-03T23:37:10.228Z,54.27
2022-09-03T23:39:39.699Z,54.47
2022-09-03T23:42:19.478Z,54.46
2022-09-03T23:45:25.736Z,54.38
2022-09-03T23:48:01.887Z,54.50
2022-09-03T23:50:50.219Z,54.70
2022-09-03T23:53:59.520Z,54.62
2022-09-03T23:57:00.887Z,54.66
